createdAt,value
2018-11-27T00:00:36.456Z,7.10
2018-11-27T00:05:49.112Z,8.97
2018-11-27T00:08:20.007Z,7.13
2018-11-27T00:16:05.909Z,13.07
2018-11-27T00:18:36.912Z,6.33
2018-11-27T00:21:07.907Z,6.87
2018-11-27T00:23:38.277Z,8.20
2018-11-27T00:26:10.931Z,7.83
2018-11-27T00:28:42.077Z,5.70
2018-11-27T00:31:26.842Z,6.80
2018-11-27T00:34:01.229Z,5.13
2018-11-27T00:39:13.692Z,4.97
2018-11-27T00:41:44.476Z,7.57
2018-11-27T00:44:17.323Z,5.70
2018-11-27T00:46:47.562Z,6.30
2018-11-27T00:49:17.952Z,8.73
2018-11-27T00:51:48.337Z,6.43
2018-11-27T00:54:20.035Z,5.57
2018-11-27T00:56:50.773Z,5.43
2018-11-27T00:59:22.967Z,5.07
2018-11-27T01:01:53.252Z,5.67
2018-11-27T01:04:23.610Z,5.50
2018-11-27T01:06:53.975Z,6.07
2018-11-27T01:09:24.453Z,4.77
2018-11-27T01:11:54.777Z,6.10
2018-11-27T01:14:26.054Z,5.20
2018-11-27T01:16:56.836Z,5.80
2018-11-27T01:19:27.237Z,7.03
2018-11-27T01:21:58.412Z,5.57
2018-11-27T01:24:29.835Z,5.77
2018-11-27T01:27:00.161Z,10.63
2018-11-27T01:29:31.416Z,4.67
2018-11-27T01:32:03.512Z,5.30
2018-11-27T01:34:35.186Z,6.77
2018-11-27T01:37:06.609Z,4.60
2018-11-27T01:39:37.101Z,5.03
2018-11-27T01:42:07.321Z,4.83
2018-11-27T01:44:37.719Z,7.47
2018-11-27T01:47:08.412Z,7.33
2018-11-27T01:49:38.982Z,8.63
2018-11-27T01:52:09.477Z,10.90
2018-11-27T01:54:40.438Z,6.17
2018-11-27T01:57:10.901Z,10.70
2018-11-27T01:59:43.752Z,6.53
2018-11-27T02:02:14.302Z,12.43
2018-11-27T02:04:44.922Z,4.87
2018-11-27T02:07:15.357Z,8.17
2018-11-27T02:09:46.457Z,5.17
2018-11-27T02:12:16.692Z,7.20
2018-11-27T02:14:47.147Z,5.17
2018-11-27T02:17:17.367Z,5.13
2018-11-27T02:19:47.732Z,4.50
2018-11-27T02:22:18.552Z,4.87
2018-11-27T02:24:50.102Z,7.23
2018-11-27T02:27:20.332Z,6.90
2018-11-27T02:29:50.562Z,8.10
2018-11-27T02:32:21.698Z,8.03
2018-11-27T02:34:54.108Z,7.17
2018-11-27T02:37:25.053Z,7.03
2018-11-27T02:39:56.573Z,7.30
2018-11-27T02:42:28.146Z,6.20
2018-11-27T02:44:59.107Z,5.93
2018-11-27T02:47:29.939Z,6.80
2018-11-27T02:50:01.928Z,9.27
2018-11-27T02:52:35.050Z,6.63
2018-11-27T02:55:13.879Z,8.43
2018-11-27T02:57:45.343Z,8.37
2018-11-27T03:00:18.193Z,7.97
2018-11-27T03:02:53.530Z,8.50
2018-11-27T03:05:34.199Z,8.07
2018-11-27T03:08:04.742Z,7.60
2018-11-27T03:10:35.558Z,14.90
2018-11-27T03:13:06.247Z,6.13
2018-11-27T03:15:39.543Z,5.80
2018-11-27T03:18:14.193Z,8.17
2018-11-27T03:20:44.749Z,8.00
2018-11-27T03:23:15.953Z,11.23
2018-11-27T03:25:48.033Z,5.93
2018-11-27T03:28:18.598Z,5.90
2018-11-27T03:30:50.405Z,9.67
2018-11-27T03:33:21.038Z,8.07
2018-11-27T03:35:52.128Z,7.37
2018-11-27T03:38:24.763Z,9.07
2018-11-27T03:40:57.592Z,7.50
2018-11-27T03:43:29.412Z,12.77
2018-11-27T03:46:00.453Z,5.70
2018-11-27T03:48:33.033Z,7.57
2018-11-27T03:51:03.502Z,11.67
2018-11-27T03:53:34.982Z,7.50
2018-11-27T03:56:07.273Z,7.40
2018-11-27T03:58:41.422Z,7.40
2018-11-27T04:01:19.407Z,7.17
2018-11-27T04:03:54.268Z,8.43
2018-11-27T04:06:26.112Z,7.80
2018-11-27T04:08:58.048Z,10.77
2018-11-27T04:11:28.648Z,9.27
2018-11-27T04:14:00.228Z,13.67
2018-11-27T04:16:31.529Z,7.83
2018-11-27T04:19:01.813Z,9.10
2018-11-27T04:21:37.898Z,9.30
2018-11-27T04:24:08.907Z,15.57
2018-11-27T04:26:39.473Z,11.90
2018-11-27T04:29:12.143Z,17.83
2018-11-27T04:31:43.824Z,13.03
2018-11-27T04:34:14.068Z,14.20
2018-11-27T04:36:44.689Z,13.97
2018-11-27T04:39:16.459Z,13.63
2018-11-27T04:41:48.364Z,14.13
2018-11-27T04:44:20.014Z,17.07
2018-11-27T04:46:50.866Z,17.03
2018-11-27T04:49:21.083Z,14.00
2018-11-27T04:51:52.218Z,20.87
2018-11-27T04:54:22.681Z,14.37
2018-11-27T04:56:53.293Z,14.90
2018-11-27T04:59:27.743Z,20.17
2018-11-27T05:01:58.253Z,19.07
2018-11-27T05:04:29.883Z,19.57
2018-11-27T05:07:00.328Z,14.33
2018-11-27T05:09:32.338Z,22.30
2018-11-27T05:12:04.028Z,17.83
2018-11-27T05:14:35.093Z,30.50
2018-11-27T05:17:06.219Z,18.17
2018-11-27T05:19:37.592Z,16.53
2018-11-27T05:22:08.914Z,20.13
2018-11-27T05:24:40.698Z,24.90
2018-11-27T05:27:13.993Z,29.40
2018-11-27T05:29:44.567Z,40.97
2018-11-27T05:32:18.639Z,26.67
2018-11-27T05:34:51.258Z,27.63
2018-11-27T05:37:22.106Z,24.10
2018-11-27T05:39:52.647Z,32.37
2018-11-27T05:42:23.867Z,17.90
2018-11-27T05:44:55.168Z,20.13
2018-11-27T05:47:27.211Z,35.07
2018-11-27T05:49:58.153Z,30.33
2018-11-27T05:52:29.322Z,21.40
2018-11-27T05:55:01.953Z,21.63
2018-11-27T05:57:32.313Z,15.77
2018-11-27T06:00:04.432Z,18.97
2018-11-27T06:02:35.031Z,18.47
2018-11-27T06:05:05.672Z,17.63
2018-11-27T06:07:36.068Z,20.00
2018-11-27T06:10:10.182Z,33.50
2018-11-27T06:12:42.592Z,12.70
2018-11-27T06:15:15.410Z,12.90
2018-11-27T06:17:46.152Z,13.87
2018-11-27T06:20:20.692Z,15.03
2018-11-27T06:22:51.037Z,14.20
2018-11-27T06:25:23.149Z,13.33
2018-11-27T06:27:55.342Z,12.40
2018-11-27T06:30:26.779Z,10.50
2018-11-27T06:32:57.703Z,9.90
2018-11-27T06:35:30.405Z,11.70
2018-11-27T06:38:00.862Z,24.10
2018-11-27T06:40:32.122Z,14.57
2018-11-27T06:43:02.492Z,13.23
2018-11-27T06:45:33.318Z,8.10
2018-11-27T06:48:03.757Z,7.17
2018-11-27T06:50:35.274Z,8.07
2018-11-27T06:53:08.352Z,10.93
2018-11-27T06:55:39.287Z,4.93
2018-11-27T06:58:09.987Z,6.80
2018-11-27T07:00:41.287Z,9.53
2018-11-27T07:03:13.002Z,8.50
2018-11-27T07:05:43.232Z,5.80
2018-11-27T07:08:13.572Z,6.57
2018-11-27T07:10:46.507Z,10.53
2018-11-27T07:13:18.573Z,7.70
2018-11-27T07:15:52.162Z,6.33
2018-11-27T07:18:22.491Z,7.67
2018-11-27T07:20:53.474Z,5.37
2018-11-27T07:23:25.652Z,6.50
2018-11-27T07:25:57.602Z,8.30
2018-11-27T07:28:27.922Z,15.60
2018-11-27T07:30:58.257Z,5.70
2018-11-27T07:33:28.719Z,7.13
2018-11-27T07:36:00.096Z,6.03
2018-11-27T07:38:30.614Z,4.40
2018-11-27T07:41:01.853Z,3.97
2018-11-27T07:43:33.457Z,3.23
2018-11-27T07:46:04.452Z,5.50
2018-11-27T07:51:14.384Z,8.20
2018-11-27T07:53:45.557Z,6.40
2018-11-27T07:58:59.307Z,4.90
2018-11-27T08:01:29.782Z,6.47
2018-11-27T08:06:40.197Z,5.53
2018-11-27T08:09:11.587Z,3.40
2018-11-27T08:11:45.877Z,3.13
2018-11-27T08:14:16.258Z,3.40
2018-11-27T08:16:47.751Z,4.43
2018-11-27T08:19:20.212Z,3.47
2018-11-27T08:21:52.154Z,7.57
2018-11-27T08:24:24.655Z,9.67
2018-11-27T08:26:55.967Z,4.00
2018-11-27T08:29:26.432Z,6.83
2018-11-27T08:31:57.751Z,6.77
2018-11-27T08:34:29.752Z,7.43
2018-11-27T08:37:01.777Z,3.00
2018-11-27T08:39:32.252Z,8.70
2018-11-27T08:44:39.006Z,3.37
2018-11-27T08:47:09.681Z,3.30
2018-11-27T08:54:57.307Z,6.53
2018-11-27T08:57:27.732Z,3.37
2018-11-27T09:02:34.187Z,5.23
2018-11-27T09:05:06.407Z,6.67
2018-11-27T09:07:37.052Z,5.27
2018-11-27T09:10:19.717Z,2.67
2018-11-27T09:12:50.669Z,4.50
2018-11-27T09:15:22.291Z,2.30
2018-11-27T09:18:02.577Z,3.03
2018-11-27T09:20:33.377Z,3.87
2018-11-27T09:23:03.718Z,4.23
2018-11-27T09:25:37.457Z,4.53
2018-11-27T09:28:07.864Z,8.70
2018-11-27T09:30:43.445Z,11.80
2018-11-27T09:33:21.143Z,3.10
2018-11-27T09:41:15.803Z,3.73
2018-11-27T09:43:57.193Z,3.30
2018-11-27T09:51:59.053Z,5.67
2018-11-27T09:54:29.542Z,6.87
2018-11-27T09:57:03.748Z,10.17
2018-11-27T09:59:34.491Z,4.83
2018-11-27T10:07:34.098Z,1.80
2018-11-27T10:10:05.291Z,1.63
2018-11-27T10:12:37.253Z,6.00
2018-11-27T10:15:14.523Z,1.50
2018-11-27T10:17:46.188Z,1.50
2018-11-27T10:20:21.923Z,2.77
2018-11-27T10:22:53.242Z,7.13
2018-11-27T10:25:26.742Z,5.37
2018-11-27T10:27:59.117Z,9.17
2018-11-27T10:30:34.725Z,1.60
2018-11-27T10:33:08.479Z,6.67
2018-11-27T10:35:46.282Z,1.50
2018-11-27T10:38:18.338Z,2.97
2018-11-27T10:40:51.228Z,6.83
2018-11-27T10:43:22.113Z,2.27
2018-11-27T10:45:55.370Z,1.60
2018-11-27T10:48:26.373Z,7.80
2018-11-27T10:53:41.474Z,1.47
2018-11-27T10:56:12.423Z,1.40
2018-11-27T10:58:47.926Z,2.60
2018-11-27T11:01:24.178Z,2.37
2018-11-27T11:03:58.420Z,1.57
2018-11-27T11:06:28.828Z,1.60
2018-11-27T11:09:02.259Z,4.47
2018-11-27T11:11:32.858Z,4.53
2018-11-27T11:19:23.093Z,7.73
2018-11-27T11:21:53.488Z,4.40
2018-11-27T11:27:04.148Z,1.83
2018-11-27T11:29:34.802Z,2.73
2018-11-27T11:32:06.777Z,3.63
2018-11-27T11:34:38.708Z,1.57
2018-11-27T11:37:10.502Z,1.10
2018-11-27T11:39:42.243Z,7.10
2018-11-27T11:42:16.032Z,2.10
2018-11-27T11:44:46.625Z,4.40
2018-11-27T11:49:59.604Z,1.80
2018-11-27T11:52:35.048Z,2.23
2018-11-27T12:00:26.154Z,4.37
2018-11-27T12:02:56.482Z,3.30
2018-11-27T12:05:34.630Z,2.67
2018-11-27T12:08:06.030Z,2.70
2018-11-27T12:15:55.629Z,2.73
2018-11-27T12:18:26.225Z,4.40
2018-11-27T12:21:02.713Z,1.13
2018-11-27T12:23:43.003Z,3.03
2018-11-27T12:28:56.409Z,6.33
2018-11-27T12:31:26.962Z,2.10
2018-11-27T12:47:02.349Z,0.90
2018-11-27T12:49:32.782Z,1.00
2018-11-27T12:52:10.472Z,1.03
2018-11-27T12:54:52.617Z,1.13
2018-11-27T12:57:36.354Z,0.97
2018-11-27T13:00:17.857Z,3.33
2018-11-27T13:03:03.373Z,2.23
2018-11-27T13:05:45.193Z,1.20
2018-11-27T13:11:11.615Z,2.53
2018-11-27T13:13:43.203Z,2.73
2018-11-27T13:16:23.538Z,1.00
2018-11-27T13:18:54.213Z,6.17
2018-11-27T13:24:03.738Z,1.63
2018-11-27T13:26:36.199Z,9.50
2018-11-27T13:34:23.629Z,1.47
2018-11-27T13:36:57.267Z,0.90
2018-11-27T13:44:49.848Z,0.90
2018-11-27T13:47:26.570Z,1.37
2018-11-27T13:55:24.605Z,5.30
2018-11-27T13:57:55.995Z,1.40
2018-11-27T14:03:10.643Z,0.93
2018-11-27T14:05:36.439Z,1.60
2018-11-27T14:08:10.508Z,5.57
2018-11-27T14:10:51.786Z,3.73
2018-11-27T14:29:09.511Z,7.53
2018-11-27T14:31:40.125Z,4.93
2018-11-27T14:49:48.679Z,3.90
2018-11-27T14:52:19.102Z,9.20
2018-11-27T14:57:30.562Z,6.43
2018-11-27T15:00:01.717Z,6.33
2018-11-27T15:05:11.488Z,9.20
2018-11-27T15:07:45.488Z,16.67
2018-11-27T15:15:40.554Z,3.07
2018-11-27T15:18:11.673Z,9.77
2018-11-27T15:26:10.668Z,15.03
2018-11-27T15:28:45.387Z,18.00
2018-11-27T15:33:59.983Z,15.50
2018-11-27T15:39:13.733Z,14.60
2018-11-27T15:44:29.883Z,16.03
2018-11-27T15:47:03.303Z,12.43
2018-11-27T15:54:49.418Z,11.20
2018-11-27T15:57:22.828Z,14.00
2018-11-27T15:59:56.383Z,8.43
2018-11-27T16:02:26.893Z,9.83
2018-11-27T16:05:03.233Z,8.03
2018-11-27T16:07:36.553Z,15.30
2018-11-27T16:20:50.109Z,5.20
2018-11-27T16:23:23.804Z,9.60
2018-11-27T16:26:00.573Z,8.43
2018-11-27T16:28:31.129Z,11.03
2018-11-27T16:31:10.293Z,7.87
2018-11-27T16:33:42.830Z,6.57
2018-11-27T16:36:13.219Z,9.73
2018-11-27T16:38:44.728Z,7.13
2018-11-27T16:43:57.564Z,11.20
2018-11-27T16:46:29.685Z,6.83
2018-11-27T16:49:02.768Z,11.10
2018-11-27T16:51:34.794Z,10.10
2018-11-27T16:54:05.219Z,10.10
2018-11-27T16:56:35.644Z,7.77
2018-11-27T17:01:44.779Z,9.40
2018-11-27T17:04:15.396Z,7.00
2018-11-27T17:09:24.300Z,7.47
2018-11-27T17:11:55.444Z,16.83
2018-11-27T17:14:27.989Z,5.70
2018-11-27T17:17:03.844Z,7.23
2018-11-27T17:19:47.909Z,8.47
2018-11-27T17:22:20.585Z,6.27
2018-11-27T17:27:28.569Z,8.30
2018-11-27T17:29:59.544Z,6.33
2018-11-27T17:37:43.923Z,9.60
2018-11-27T17:40:16.234Z,10.30
2018-11-27T17:48:01.669Z,11.47
2018-11-27T17:50:32.212Z,10.40
2018-11-27T17:58:22.906Z,8.27
2018-11-27T18:00:53.159Z,11.53
2018-11-27T18:03:23.709Z,11.70
2018-11-27T18:05:55.064Z,9.10
2018-11-27T18:08:25.549Z,10.00
2018-11-27T18:10:57.110Z,12.43
2018-11-27T18:13:29.297Z,9.43
2018-11-27T18:15:59.645Z,9.60
2018-11-27T18:18:31.103Z,12.23
2018-11-27T18:21:02.409Z,11.73
2018-11-27T18:23:39.566Z,14.40
2018-11-27T18:26:10.865Z,7.83
2018-11-27T18:28:43.719Z,9.10
2018-11-27T18:31:13.955Z,10.03
2018-11-27T18:33:46.779Z,9.80
2018-11-27T18:36:17.823Z,13.53
2018-11-27T18:38:55.745Z,10.17
2018-11-27T18:41:26.014Z,13.70
2018-11-27T18:44:01.285Z,7.83
2018-11-27T18:46:31.524Z,9.47
2018-11-27T18:49:05.462Z,16.37
2018-11-27T18:51:43.671Z,11.33
2018-11-27T18:54:14.459Z,7.60
2018-11-27T18:56:46.306Z,7.77
2018-11-27T18:59:18.448Z,14.50
2018-11-27T19:01:49.113Z,7.03
2018-11-27T19:04:20.079Z,8.73
2018-11-27T19:06:51.429Z,17.83
2018-11-27T19:09:23.114Z,12.10
2018-11-27T19:11:54.599Z,6.67
2018-11-27T19:14:25.624Z,12.53
2018-11-27T19:16:57.633Z,7.33
2018-11-27T19:19:28.928Z,8.30
2018-11-27T19:22:00.419Z,10.27
2018-11-27T19:24:32.058Z,13.43
2018-11-27T19:27:06.493Z,7.80
2018-11-27T19:29:36.948Z,7.30
2018-11-27T19:32:07.444Z,9.97
2018-11-27T19:34:37.973Z,6.73
2018-11-27T19:37:08.843Z,6.80
2018-11-27T19:39:40.118Z,9.67
2018-11-27T19:42:11.060Z,9.60
2018-11-27T19:44:42.923Z,5.37
2018-11-27T19:47:14.888Z,9.93
2018-11-27T19:49:47.259Z,7.87
2018-11-27T19:52:20.039Z,5.20
2018-11-27T19:54:54.564Z,10.73
2018-11-27T19:57:26.875Z,7.80
2018-11-27T19:59:59.373Z,6.07
2018-11-27T20:02:31.529Z,6.07
2018-11-27T20:05:01.933Z,9.73
2018-11-27T20:07:33.208Z,10.87
2018-11-27T20:10:04.258Z,7.40
2018-11-27T20:12:35.563Z,5.93
2018-11-27T20:15:07.528Z,6.53
2018-11-27T20:17:38.348Z,9.27
2018-11-27T20:20:10.678Z,8.03
2018-11-27T20:22:41.644Z,11.67
2018-11-27T20:25:14.534Z,6.23
2018-11-27T20:27:44.817Z,6.33
2018-11-27T20:30:18.801Z,7.63
2018-11-27T20:33:02.149Z,8.10
2018-11-27T20:35:33.750Z,11.17
2018-11-27T20:38:06.533Z,6.03
2018-11-27T20:40:37.029Z,12.97
2018-11-27T20:43:07.594Z,11.77
2018-11-27T20:47:47.139Z,6.97
2018-11-27T20:50:21.693Z,7.67
2018-11-27T20:52:52.958Z,8.90
2018-11-27T20:55:23.634Z,6.27
2018-11-27T20:57:56.276Z,9.73
2018-11-27T21:00:28.413Z,7.63
2018-11-27T21:03:02.838Z,7.53
2018-11-27T21:05:34.072Z,7.67
2018-11-27T21:08:04.876Z,8.97
2018-11-27T21:10:35.558Z,14.53
2018-11-27T21:13:07.803Z,6.50
2018-11-27T21:15:39.062Z,7.53
2018-11-27T21:18:11.533Z,9.83
2018-11-27T21:20:43.118Z,7.70
2018-11-27T21:23:17.069Z,7.77
2018-11-27T21:25:47.751Z,8.90
2018-11-27T21:28:20.166Z,9.07
2018-11-27T21:30:52.868Z,5.17
2018-11-27T21:33:27.067Z,9.03
2018-11-27T21:35:59.050Z,7.30
2018-11-27T21:38:30.484Z,5.47
2018-11-27T21:41:03.373Z,6.80
2018-11-27T21:43:33.967Z,6.07
2018-11-27T21:46:06.083Z,6.33
2018-11-27T21:48:36.644Z,5.90
2018-11-27T21:51:07.033Z,5.27
2018-11-27T21:53:39.218Z,12.07
2018-11-27T21:56:09.763Z,13.10
2018-11-27T21:58:40.285Z,3.80
2018-11-27T22:01:10.557Z,16.47
2018-11-27T22:03:40.988Z,8.90
2018-11-27T22:06:11.223Z,6.93
2018-11-27T22:08:49.557Z,5.13
2018-11-27T22:11:20.313Z,5.40
2018-11-27T22:13:51.793Z,15.37
2018-11-27T22:16:25.114Z,5.53
2018-11-27T22:18:56.472Z,20.60
2018-11-27T22:21:26.802Z,5.30
2018-11-27T22:23:57.339Z,11.50
2018-11-27T22:26:28.697Z,10.80
2018-11-27T22:29:00.177Z,5.10
2018-11-27T22:31:30.594Z,4.00
2018-11-27T22:34:01.622Z,3.77
2018-11-27T22:36:33.343Z,6.37
2018-11-27T22:39:05.469Z,12.60
2018-11-27T22:41:36.568Z,9.90
2018-11-27T22:44:08.228Z,4.97
2018-11-27T22:46:38.638Z,3.40
2018-11-27T22:49:08.993Z,11.23
2018-11-27T22:51:41.479Z,12.13
2018-11-27T22:54:11.877Z,4.03
2018-11-27T22:56:42.272Z,5.57
2018-11-27T22:59:15.592Z,6.77
2018-11-27T23:01:45.942Z,4.40
2018-11-27T23:04:16.397Z,3.97
2018-11-27T23:06:46.638Z,4.60
2018-11-27T23:09:18.279Z,2.47
2018-11-27T23:11:52.917Z,11.30
2018-11-27T23:14:23.913Z,4.00
2018-11-27T23:16:54.323Z,5.00
2018-11-27T23:19:24.772Z,5.40
2018-11-27T23:21:57.333Z,5.70
2018-11-27T23:24:28.384Z,5.47
2018-11-27T23:26:59.337Z,3.73
2018-11-27T23:29:33.217Z,1.47
2018-11-27T23:32:05.806Z,6.60
2018-11-27T23:34:40.412Z,7.40
2018-11-27T23:37:11.512Z,9.40
2018-11-27T23:39:41.777Z,7.23
2018-11-27T23:42:12.142Z,4.20
2018-11-27T23:44:42.483Z,4.37
2018-11-27T23:47:13.007Z,9.40
2018-11-27T23:49:43.397Z,10.30
2018-11-27T23:52:13.862Z,2.93
2018-11-27T23:54:44.412Z,7.87
2018-11-27T23:57:14.977Z,3.73
2018-11-27T23:59:46.632Z,5.03
